Griddlers

Aller directement au puzzle n°

Sélectionnez les puzzles par:
Résolu le Question Trier par
Montrer plus de filtres >>>
Puzzles par page
Page de 793
Résultat: 15849 sur 15849
ID Description Auteur Date Taille Points Popularité Temps Moyen Résolu le
180459 Echeveria xitvono 29/11/16 30x30x5 f-1 24 611 64,77% 0:36:50
180238 Baby Deadpool katkasom 24/11/16 25x37x3 f-1 11 147 72,70% 0:16:09
180237 Flash anat.mh 24/11/16 22x23x7 f-1 14 233 66,20% 0:10:27
180236 Scrooge notorioushat 24/11/16 24x29x6 f-1 20 866 76,78% 0:17:51
180235 Ninja Gaiden: Ryu notorioushat 24/11/16 40x29x6 f-1 24 534 72,58% 0:20:56
180234 Launchpad McQuack notorioushat 24/11/16 23x40x6 f-1 28 233 72,50% 0:20:45
180233 Huey, Dewey & Louie notorioushat 24/11/16 50x21x7 f-1 31 546 71,78% 0:24:05
180230 Hi Cartoon anat.mh 24/11/16 35x35x6 f-1 81 171 71,21% 0:24:53
179561 Flamingo farfalla19 31/10/16 26x30x8 f-1 28 721 85,74% 0:18:36
179559 Sweet Bunny farfalla19 31/10/16 31x33x6 f-1 58 211 87,67% 0:34:57
179502 Pink Bear Care farfalla19 30/10/16 27x32x8 f-1 18 318 79,80% 0:15:53
179499 Bow and Arrow gridmaster 30/10/16 35x35x8 f-1 333 333 75,00% 0:30:28
179263 Minjae Lee, Blue Lip naija1 24/10/16 30x40x4 t-1 33 074 80,44% 0:39:27
179209 Jam Nicky 20/10/16 28x34x6 f-1 17 056 78,92% 0:16:39
179208 Duck Nicky 20/10/16 40x25x8 f-1 42 079 85,19% 0:24:05
179097 Victini - Pokemon No. 494 heksje 16/10/16 25x25x6 f-1 17 728 65,44% 0:14:58
179020 Car meszi 15/10/16 40x15x5 f-1 9 022 78,95% 0:09:09
179017 Home Sweet Home meszi 15/10/16 20x20x6 f-1 3 625 77,10% 0:12:46
179009 Spearow - Pokemon No. 021 xitvono 13/10/16 35x35x6 f-1 65 993 71,97% 0:53:31
178869 Funny Snail danulko 05/10/16 24x23x4 t-1 4 658 71,97% 0:08:08
Puzzles par page
Page de 793
Résultat: 15849 sur 15849